createdAt,value
2018-04-18T00:01:41.642Z,12.70
2018-04-18T00:04:11.597Z,12.60
2018-04-18T00:06:40.503Z,12.50
2018-04-18T00:09:08.953Z,12.50
2018-04-18T00:11:37.402Z,12.50
2018-04-18T00:14:06.629Z,12.40
2018-04-18T00:16:35.061Z,12.40
2018-04-18T00:19:03.493Z,12.30
2018-04-18T00:21:31.938Z,12.20
2018-04-18T00:24:01.141Z,12.20
2018-04-18T00:26:29.385Z,12.10
2018-04-18T00:28:57.589Z,12.10
2018-04-18T00:31:26.780Z,12.10
2018-04-18T00:33:55.979Z,12.20
2018-04-18T00:36:25.202Z,12.10
2018-04-18T00:38:53.653Z,12.10
2018-04-18T00:41:22.857Z,12.10
2018-04-18T00:43:51.061Z,12.10
2018-04-18T00:46:19.505Z,12.10
2018-04-18T00:48:48.718Z,12.10
2018-04-18T00:51:18.101Z,12.00
2018-04-18T00:53:47.309Z,12.00
2018-04-18T00:56:15.747Z,12.00
2018-04-18T00:58:44.186Z,12.10
2018-04-18T01:01:12.630Z,12.00
2018-04-18T01:03:41.840Z,12.10
2018-04-18T01:06:10.920Z,12.10
2018-04-18T01:08:40.443Z,12.10
2018-04-18T01:11:08.927Z,12.10
2018-04-18T01:13:37.382Z,12.00
2018-04-18T01:16:06.577Z,12.00
2018-04-18T01:18:35.801Z,11.90
2018-04-18T01:21:04.237Z,11.90
2018-04-18T01:23:32.667Z,11.90
2018-04-18T01:26:01.117Z,11.90
2018-04-18T01:28:30.325Z,11.90
2018-04-18T01:30:58.770Z,11.90
2018-04-18T01:33:27.213Z,11.90
2018-04-18T01:35:55.674Z,11.80
2018-04-18T01:38:24.110Z,11.80
2018-04-18T01:40:52.554Z,11.70
2018-04-18T01:43:21.012Z,11.70
2018-04-18T01:45:49.489Z,11.70
2018-04-18T01:48:17.936Z,11.60
2018-04-18T01:50:47.159Z,11.60
2018-04-18T01:53:16.597Z,11.60
2018-04-18T01:55:45.029Z,11.70
2018-04-18T01:58:13.474Z,11.70
2018-04-18T02:00:41.674Z,11.50
2018-04-18T02:03:10.894Z,11.40
2018-04-18T02:05:39.324Z,11.30
2018-04-18T02:08:09.162Z,11.30
2018-04-18T02:10:37.625Z,11.30
2018-04-18T02:13:06.821Z,11.20
2018-04-18T02:15:36.017Z,11.40
2018-04-18T02:18:05.233Z,11.20
2018-04-18T02:20:33.688Z,11.20
2018-04-18T02:23:01.921Z,11.20
2018-04-18T02:25:30.366Z,11.20
2018-04-18T02:27:59.579Z,11.20
2018-04-18T02:30:28.033Z,11.10
2018-04-18T02:32:57.234Z,11.20
2018-04-18T02:35:25.869Z,11.10
2018-04-18T02:37:54.316Z,11.10
2018-04-18T02:40:22.756Z,11.30
2018-04-18T02:42:51.977Z,11.10
2018-04-18T02:45:20.409Z,11.10
2018-04-18T02:47:48.868Z,11.00
2018-04-18T02:50:17.073Z,11.00
2018-04-18T02:52:45.513Z,10.90
2018-04-18T02:55:13.970Z,10.90
2018-04-18T02:57:43.181Z,11.00
2018-04-18T03:00:12.359Z,10.90
2018-04-18T03:02:40.785Z,10.90
2018-04-18T03:05:09.210Z,10.80
2018-04-18T03:07:38.420Z,10.70
2018-04-18T03:10:06.858Z,10.70
2018-04-18T03:12:35.321Z,10.70
2018-04-18T03:15:03.751Z,10.70
2018-04-18T03:17:32.210Z,10.70
2018-04-18T03:20:00.587Z,10.60
2018-04-18T03:22:29.788Z,10.60
2018-04-18T03:24:58.755Z,10.50
2018-04-18T03:27:27.184Z,10.50
2018-04-18T03:29:55.621Z,10.50
2018-04-18T03:32:24.069Z,10.50
2018-04-18T03:34:52.503Z,10.50
2018-04-18T03:37:21.701Z,10.40
2018-04-18T03:39:50.921Z,10.40
2018-04-18T03:42:19.358Z,10.40
2018-04-18T03:44:49.582Z,10.60
2018-04-18T03:47:18.792Z,10.60
2018-04-18T03:49:47.997Z,10.70
2018-04-18T03:52:16.441Z,10.60
2018-04-18T03:54:44.961Z,10.70
2018-04-18T03:57:13.384Z,10.70
2018-04-18T03:59:42.166Z,10.80
2018-04-18T04:02:11.270Z,10.90
2018-04-18T04:04:39.841Z,10.90
2018-04-18T04:07:08.290Z,11.00
2018-04-18T04:09:37.797Z,11.00
2018-04-18T04:12:06.257Z,11.10
2018-04-18T04:14:34.717Z,11.20
2018-04-18T04:17:15.249Z,11.20
2018-04-18T04:19:54.943Z,11.20
2018-04-18T04:22:36.189Z,11.30
2018-04-18T04:25:03.954Z,11.40
2018-04-18T04:27:32.404Z,11.30
2018-04-18T04:30:00.844Z,11.30
2018-04-18T04:32:29.289Z,11.30
2018-04-18T04:34:57.544Z,11.30
2018-04-18T04:37:25.968Z,11.30
2018-04-18T04:39:54.947Z,11.40
2018-04-18T04:42:24.145Z,11.40
2018-04-18T04:44:53.406Z,11.40
2018-04-18T04:47:22.029Z,11.40
2018-04-18T04:49:51.239Z,11.50
2018-04-18T04:52:19.677Z,11.50
2018-04-18T04:54:48.134Z,11.50
2018-04-18T04:57:16.578Z,11.50
2018-04-18T04:59:45.155Z,11.50
2018-04-18T05:02:14.368Z,11.50
2018-04-18T05:04:42.812Z,11.50
2018-04-18T05:07:11.777Z,11.50
2018-04-18T05:09:41.062Z,11.50
2018-04-18T05:12:09.818Z,11.60
2018-04-18T05:14:39.277Z,11.60
2018-04-18T05:17:07.708Z,11.60
2018-04-18T05:19:36.156Z,11.70
2018-04-18T05:22:05.376Z,11.90
2018-04-18T05:24:33.881Z,11.80
2018-04-18T05:27:02.308Z,11.80
2018-04-18T05:29:31.520Z,11.70
2018-04-18T05:31:59.959Z,11.70
2018-04-18T05:34:28.448Z,11.80
2018-04-18T05:36:56.954Z,11.80
2018-04-18T05:39:26.152Z,11.80
2018-04-18T05:41:54.597Z,11.80
2018-04-18T05:44:23.027Z,11.70
2018-04-18T05:46:51.471Z,11.80
2018-04-18T05:49:20.676Z,11.90
2018-04-18T05:51:50.450Z,12.00
2018-04-18T05:54:18.648Z,12.00
2018-04-18T05:56:47.108Z,12.00
2018-04-18T05:59:15.320Z,11.90
2018-04-18T06:01:44.529Z,12.30
2018-04-18T06:04:12.736Z,12.30
2018-04-18T06:06:41.176Z,12.40
2018-04-18T06:09:09.636Z,12.50
2018-04-18T06:11:38.847Z,12.70
2018-04-18T06:14:08.031Z,12.80
2018-04-18T06:16:37.010Z,12.90
2018-04-18T06:19:05.439Z,12.80
2018-04-18T06:21:33.885Z,12.90
2018-04-18T06:24:03.085Z,13.00
2018-04-18T06:26:32.295Z,13.10
2018-04-18T06:29:00.724Z,13.10
2018-04-18T06:31:29.186Z,13.20
2018-04-18T06:33:57.642Z,13.30
2018-04-18T06:36:26.072Z,13.40
2018-04-18T06:38:54.507Z,13.50
2018-04-18T06:41:22.706Z,13.60
2018-04-18T06:43:51.149Z,13.60
2018-04-18T06:46:19.582Z,13.80
2018-04-18T06:48:48.000Z,13.90
2018-04-18T06:51:16.487Z,13.90
2018-04-18T06:53:45.881Z,14.10
2018-04-18T06:56:14.335Z,14.10
2018-04-18T06:58:43.524Z,14.30
2018-04-18T07:01:11.971Z,14.30
2018-04-18T07:03:40.400Z,14.40
2018-04-18T07:06:09.586Z,14.50
2018-04-18T07:08:38.788Z,14.60
2018-04-18T07:11:07.983Z,14.60
2018-04-18T07:13:36.965Z,14.80
2018-04-18T07:16:05.957Z,14.80
2018-04-18T07:18:35.165Z,14.90
2018-04-18T07:21:04.121Z,15.00
2018-04-18T07:23:32.564Z,15.00
2018-04-18T07:26:00.990Z,15.00
2018-04-18T07:28:29.791Z,15.00
2018-04-18T07:30:59.568Z,15.20
2018-04-18T07:33:28.019Z,15.20
2018-04-18T07:35:56.449Z,15.20
2018-04-18T07:38:24.975Z,15.30
2018-04-18T07:40:53.420Z,15.30
2018-04-18T07:43:23.590Z,15.50
2018-04-18T07:45:52.023Z,15.50
2018-04-18T07:48:21.222Z,15.60
2018-04-18T07:50:50.438Z,15.70
2018-04-18T07:53:19.951Z,15.70
2018-04-18T07:55:48.409Z,15.80
2018-04-18T07:58:16.865Z,15.90
2018-04-18T08:00:45.300Z,15.90
2018-04-18T08:03:14.810Z,16.00
2018-04-18T08:05:43.248Z,16.10
2018-04-18T08:08:11.737Z,16.10
2018-04-18T08:10:40.181Z,16.10
2018-04-18T08:13:08.721Z,16.20
2018-04-18T08:15:37.152Z,16.20
2018-04-18T08:18:06.365Z,16.40
2018-04-18T08:20:34.808Z,16.30
2018-04-18T08:23:03.004Z,16.60
2018-04-18T08:25:32.200Z,16.80
2018-04-18T08:28:01.400Z,16.80
2018-04-18T08:30:30.592Z,16.80
2018-04-18T08:32:59.800Z,16.90
2018-04-18T08:35:28.228Z,16.90
2018-04-18T08:37:56.663Z,16.90
2018-04-18T08:40:25.095Z,16.90
2018-04-18T08:42:53.331Z,16.90
2018-04-18T08:45:21.786Z,17.10
2018-04-18T08:47:50.207Z,17.10
2018-04-18T08:50:18.643Z,17.10
2018-04-18T08:52:47.602Z,17.30
2018-04-18T08:55:16.048Z,17.30
2018-04-18T08:57:44.498Z,17.30
2018-04-18T09:00:12.732Z,17.40
2018-04-18T09:02:40.928Z,17.50
2018-04-18T09:05:10.670Z,17.60
2018-04-18T09:07:40.039Z,17.60
2018-04-18T09:10:09.222Z,17.80
2018-04-18T09:12:37.746Z,17.80
2018-04-18T09:15:06.187Z,17.80
2018-04-18T09:17:35.392Z,17.90
2018-04-18T09:20:04.253Z,17.90
2018-04-18T09:22:32.679Z,17.90
2018-04-18T09:25:01.099Z,17.80
2018-04-18T09:27:29.548Z,17.80
2018-04-18T09:29:57.973Z,18.00
2018-04-18T09:32:26.429Z,18.20
2018-04-18T09:34:54.872Z,18.20
2018-04-18T09:37:23.064Z,18.20
2018-04-18T09:39:51.512Z,18.20
2018-04-18T09:42:19.944Z,18.30
2018-04-18T09:44:48.386Z,18.20
2018-04-18T09:47:16.869Z,18.10
2018-04-18T09:49:45.322Z,18.30
2018-04-18T09:52:14.515Z,18.50
2018-04-18T09:54:43.743Z,18.70
2018-04-18T09:57:12.170Z,18.70
2018-04-18T09:59:40.601Z,18.70
2018-04-18T10:02:14.454Z,18.60
2018-04-18T10:04:44.643Z,18.60
2018-04-18T10:07:13.297Z,18.70
2018-04-18T10:09:41.751Z,19.00
2018-04-18T10:12:10.942Z,18.60
2018-04-18T10:14:40.127Z,18.70
2018-04-18T10:17:08.557Z,18.60
2018-04-18T10:19:36.315Z,18.60
2018-04-18T10:22:04.768Z,18.90
2018-04-18T10:24:33.961Z,19.00
2018-04-18T10:27:03.175Z,19.10
2018-04-18T10:29:31.603Z,19.10
2018-04-18T10:32:00.848Z,19.20
2018-04-18T10:34:29.922Z,19.10
2018-04-18T10:37:00.100Z,19.20
2018-04-18T10:39:28.606Z,19.10
2018-04-18T10:41:57.048Z,19.20
2018-04-18T10:44:25.490Z,19.00
2018-04-18T10:46:54.682Z,19.00
2018-04-18T10:49:23.913Z,19.00
2018-04-18T10:51:52.111Z,19.00
2018-04-18T10:54:20.305Z,19.30
2018-04-18T10:56:48.759Z,19.40
2018-04-18T10:59:17.193Z,19.50
2018-04-18T11:01:45.622Z,19.60
2018-04-18T11:04:14.041Z,19.60
2018-04-18T11:06:43.248Z,19.40
2018-04-18T11:09:11.679Z,19.40
2018-04-18T11:11:40.127Z,19.70
2018-04-18T11:14:08.551Z,19.70
2018-04-18T11:16:36.996Z,19.70
2018-04-18T11:19:05.435Z,19.70
2018-04-18T11:21:34.646Z,19.90
2018-04-18T11:24:02.840Z,19.90
2018-04-18T11:26:32.040Z,19.80
2018-04-18T11:29:01.478Z,19.90
2018-04-18T11:31:30.500Z,19.90
2018-04-18T11:34:00.329Z,20.00
2018-04-18T11:36:29.020Z,20.00
2018-04-18T11:38:57.480Z,20.10
2018-04-18T11:41:25.925Z,20.00
2018-04-18T11:43:55.385Z,20.20
2018-04-18T11:46:23.817Z,20.10
2018-04-18T11:48:53.034Z,20.00
2018-04-18T11:51:21.468Z,20.00
2018-04-18T11:53:50.693Z,20.30
2018-04-18T11:56:19.901Z,20.30
2018-04-18T11:58:49.090Z,20.40
2018-04-18T12:01:18.309Z,20.40
2018-04-18T12:03:47.743Z,20.40
2018-04-18T12:06:16.168Z,20.50
2018-04-18T12:08:45.381Z,20.60
2018-04-18T12:11:13.815Z,20.60
2018-04-18T12:13:42.024Z,20.60
2018-04-18T12:16:11.226Z,20.70
2018-04-18T12:18:39.668Z,20.60
2018-04-18T12:21:07.859Z,20.70
2018-04-18T12:23:38.049Z,20.50
2018-04-18T12:26:06.478Z,20.40
2018-04-18T12:28:34.923Z,20.60
2018-04-18T12:31:03.348Z,20.60
2018-04-18T12:33:32.796Z,20.70
2018-04-18T12:36:01.211Z,20.50
2018-04-18T12:38:30.288Z,20.60
2018-04-18T12:40:59.752Z,20.90
2018-04-18T12:43:27.966Z,20.90
2018-04-18T12:45:57.164Z,21.00
2018-04-18T12:48:26.359Z,20.80
2018-04-18T12:50:55.561Z,21.00
2018-04-18T12:53:25.722Z,21.00
2018-04-18T12:55:54.168Z,20.90
2018-04-18T12:58:22.581Z,20.90
2018-04-18T13:00:51.005Z,20.90
2018-04-18T13:03:21.196Z,21.00
2018-04-18T13:05:49.652Z,21.00
2018-04-18T13:08:18.081Z,21.00
2018-04-18T13:10:47.281Z,21.00
2018-04-18T13:13:17.538Z,20.80
2018-04-18T13:15:45.960Z,20.80
2018-04-18T13:18:14.405Z,21.00
2018-04-18T13:20:42.833Z,21.10
2018-04-18T13:23:11.810Z,21.20
2018-04-18T13:25:40.229Z,21.20
2018-04-18T13:28:08.658Z,21.20
2018-04-18T13:30:37.101Z,21.20
2018-04-18T13:33:05.547Z,21.30
2018-04-18T13:35:34.752Z,21.20
2018-04-18T13:38:03.012Z,21.20
2018-04-18T13:40:32.176Z,21.30
2018-04-18T13:43:00.607Z,21.30
2018-04-18T13:45:28.805Z,21.30
2018-04-18T13:47:57.313Z,21.30
2018-04-18T13:50:25.916Z,21.20
2018-04-18T13:52:55.115Z,21.30
2018-04-18T13:55:24.308Z,21.30
2018-04-18T13:57:53.545Z,21.20
2018-04-18T14:00:21.971Z,21.20
2018-04-18T14:02:50.404Z,21.30
2018-04-18T14:05:18.830Z,21.30
2018-04-18T14:07:47.395Z,21.40
2018-04-18T14:10:16.005Z,21.60
2018-04-18T14:12:45.183Z,21.60
2018-04-18T14:15:13.668Z,21.50
2018-04-18T14:17:42.291Z,21.50
2018-04-18T14:20:10.716Z,21.40
2018-04-18T14:22:39.143Z,21.30
2018-04-18T14:25:07.563Z,21.40
2018-04-18T14:27:36.018Z,21.50
2018-04-18T14:30:03.764Z,21.50
2018-04-18T14:32:32.757Z,21.50
2018-04-18T14:35:01.190Z,21.60
2018-04-18T14:37:29.732Z,21.60
2018-04-18T14:39:58.169Z,21.60
2018-04-18T14:42:27.379Z,21.50
2018-04-18T14:44:56.615Z,21.60
2018-04-18T14:47:25.049Z,21.60
2018-04-18T14:49:54.246Z,21.30
2018-04-18T14:52:23.453Z,21.40
2018-04-18T14:54:52.662Z,21.50
2018-04-18T14:57:21.089Z,21.40
2018-04-18T14:59:49.533Z,21.40
2018-04-18T15:02:17.968Z,21.50
2018-04-18T15:04:47.182Z,21.50
2018-04-18T15:07:16.390Z,21.50
2018-04-18T15:09:44.824Z,21.40
2018-04-18T15:12:13.241Z,21.40
2018-04-18T15:14:42.754Z,21.40
2018-04-18T15:17:11.185Z,21.40
2018-04-18T15:19:39.616Z,21.40
2018-04-18T15:22:08.064Z,21.50
2018-04-18T15:24:37.257Z,21.30
2018-04-18T15:27:06.461Z,21.30
2018-04-18T15:29:35.655Z,21.30
2018-04-18T15:32:04.858Z,21.30
2018-04-18T15:34:33.284Z,21.30
2018-04-18T15:37:01.714Z,21.20
2018-04-18T15:39:30.923Z,21.10
2018-04-18T15:41:59.352Z,21.10
2018-04-18T15:44:27.799Z,21.00
2018-04-18T15:46:56.241Z,21.00
2018-04-18T15:49:25.428Z,20.90
2018-04-18T15:51:54.673Z,20.80
2018-04-18T15:54:23.107Z,20.80
2018-04-18T15:56:52.073Z,20.70
2018-04-18T15:59:20.487Z,20.70
2018-04-18T16:01:49.705Z,20.70
2018-04-18T16:04:18.132Z,20.70
2018-04-18T16:06:46.561Z,20.70
2018-04-18T16:09:14.998Z,20.60
2018-04-18T16:11:43.457Z,20.60
2018-04-18T16:14:11.897Z,20.50
2018-04-18T16:16:40.358Z,20.50
2018-04-18T16:19:09.536Z,20.40
2018-04-18T16:21:38.751Z,20.30
2018-04-18T16:24:07.962Z,20.40
2018-04-18T16:26:36.390Z,20.40
2018-04-18T16:29:16.107Z,20.40
2018-04-18T16:31:44.528Z,20.30
2018-04-18T16:34:13.746Z,20.30
2018-04-18T16:36:42.938Z,20.20
2018-04-18T16:39:12.141Z,20.10
2018-04-18T16:41:40.372Z,20.10
2018-04-18T16:44:08.569Z,20.10
2018-04-18T16:46:37.786Z,20.00
2018-04-18T16:49:06.249Z,20.00
2018-04-18T16:51:35.448Z,20.00
2018-04-18T16:54:04.652Z,20.00
2018-04-18T16:56:33.864Z,20.00
2018-04-18T16:59:02.848Z,19.90
2018-04-18T17:01:31.384Z,19.90
2018-04-18T17:03:59.833Z,19.90
2018-04-18T17:06:28.250Z,19.80
2018-04-18T17:08:56.454Z,19.80
2018-04-18T17:11:24.881Z,19.70
2018-04-18T17:13:53.345Z,19.70
2018-04-18T17:16:21.774Z,19.70
2018-04-18T17:18:50.969Z,19.60
2018-04-18T17:21:20.182Z,19.50
2018-04-18T17:23:48.605Z,19.50
2018-04-18T17:26:17.046Z,19.50
2018-04-18T17:28:45.494Z,19.50
2018-04-18T17:31:14.472Z,19.40
2018-04-18T17:33:42.900Z,19.40
2018-04-18T17:36:11.341Z,19.30
2018-04-18T17:38:39.544Z,19.30
2018-04-18T17:41:07.980Z,19.30
2018-04-18T17:43:36.437Z,19.30
2018-04-18T17:46:04.871Z,19.20
2018-04-18T17:48:34.077Z,19.10
2018-04-18T17:51:03.202Z,19.10
2018-04-18T17:53:32.289Z,19.10
2018-04-18T17:56:00.786Z,19.00
2018-04-18T17:58:29.229Z,19.00
2018-04-18T18:00:57.678Z,19.00
2018-04-18T18:03:26.890Z,18.90
2018-04-18T18:05:56.090Z,18.80
2018-04-18T18:08:24.524Z,18.80
2018-04-18T18:10:52.961Z,18.80
2018-04-18T18:13:21.396Z,18.80
2018-04-18T18:15:49.829Z,18.70
2018-04-18T18:18:18.268Z,18.70
2018-04-18T18:20:47.464Z,18.60
2018-04-18T18:23:16.673Z,18.50
2018-04-18T18:25:45.866Z,18.50
2018-04-18T18:28:15.080Z,18.50
2018-04-18T18:30:43.510Z,18.40
2018-04-18T18:33:11.931Z,18.50
2018-04-18T18:35:40.368Z,18.40
2018-04-18T18:38:08.805Z,18.40
2018-04-18T18:40:37.246Z,18.30
2018-04-18T18:43:06.429Z,18.20
2018-04-18T18:45:34.891Z,18.20
2018-04-18T18:48:03.911Z,18.20
2018-04-18T18:50:33.989Z,18.20
2018-04-18T18:53:02.434Z,18.20
2018-04-18T18:55:31.233Z,18.10
2018-04-18T18:57:59.669Z,18.10
2018-04-18T19:00:28.868Z,18.00
2018-04-18T19:02:58.082Z,18.00
2018-04-18T19:05:26.534Z,17.90
2018-04-18T19:07:54.963Z,17.90
2018-04-18T19:10:23.394Z,17.90
2018-04-18T19:12:51.857Z,17.80
2018-04-18T19:15:20.301Z,17.90
2018-04-18T19:17:48.728Z,17.90
2018-04-18T19:20:17.230Z,17.90
2018-04-18T19:22:46.440Z,17.90
2018-04-18T19:25:14.882Z,17.90
2018-04-18T19:27:43.336Z,17.80
2018-04-18T19:30:11.766Z,17.80
2018-04-18T19:32:40.198Z,17.80
2018-04-18T19:35:08.641Z,17.80
2018-04-18T19:37:37.068Z,17.70
2018-04-18T19:40:05.508Z,17.70
2018-04-18T19:42:33.957Z,17.70
2018-04-18T19:45:03.153Z,17.60
2018-04-18T19:47:32.365Z,17.60
2018-04-18T19:50:00.787Z,17.60
2018-04-18T19:52:29.236Z,17.70
2018-04-18T19:54:57.665Z,17.60
2018-04-18T19:57:26.133Z,17.50
2018-04-18T19:59:54.572Z,17.50
2018-04-18T20:02:22.995Z,17.50
2018-04-18T20:04:51.448Z,17.50
2018-04-18T20:07:19.892Z,17.50
2018-04-18T20:09:48.337Z,17.50
2018-04-18T20:12:16.850Z,17.40
2018-04-18T20:14:45.301Z,17.40
2018-04-18T20:17:14.526Z,17.40
2018-04-18T20:19:43.736Z,17.30
2018-04-18T20:22:12.902Z,17.40
2018-04-18T20:24:42.471Z,17.30
2018-04-18T20:27:10.915Z,17.30
2018-04-18T20:29:39.373Z,17.30
2018-04-18T20:32:07.801Z,17.30
2018-04-18T20:34:36.232Z,17.20
2018-04-18T20:37:04.736Z,17.20
2018-04-18T20:39:33.377Z,17.20
2018-04-18T20:42:02.744Z,17.10
2018-04-18T20:44:31.164Z,17.10
2018-04-18T20:47:00.397Z,17.10
2018-04-18T20:49:28.820Z,17.10
2018-04-18T20:51:57.285Z,17.10
2018-04-18T20:54:25.474Z,17.10
2018-04-18T20:56:53.921Z,17.10
2018-04-18T20:59:22.360Z,17.10
2018-04-18T21:01:51.225Z,17.00
2018-04-18T21:04:20.453Z,17.00
2018-04-18T21:06:48.883Z,17.00
2018-04-18T21:09:17.315Z,17.00
2018-04-18T21:11:45.769Z,17.00
2018-04-18T21:14:14.984Z,17.00
2018-04-18T21:16:43.413Z,16.90
2018-04-18T21:19:11.833Z,16.90
2018-04-18T21:21:40.276Z,16.90
2018-04-18T21:24:08.700Z,16.90
2018-04-18T21:26:37.187Z,16.90
2018-04-18T21:29:05.516Z,16.90
2018-04-18T21:31:34.103Z,16.90
2018-04-18T21:34:03.088Z,16.90
2018-04-18T21:36:31.512Z,16.80
2018-04-18T21:38:59.964Z,16.80
2018-04-18T21:41:29.173Z,16.70
2018-04-18T21:43:57.640Z,16.70
2018-04-18T21:46:26.845Z,16.70
2018-04-18T21:48:56.029Z,16.70
2018-04-18T21:51:25.210Z,16.60
2018-04-18T21:53:53.755Z,16.70
2018-04-18T21:56:22.197Z,16.60
2018-04-18T21:58:51.398Z,16.60
2018-04-18T22:01:19.841Z,16.50
2018-04-18T22:03:48.273Z,16.50
2018-04-18T22:06:16.737Z,16.50
2018-04-18T22:08:45.164Z,16.50
2018-04-18T22:11:13.603Z,16.50
2018-04-18T22:13:42.050Z,16.50
2018-04-18T22:16:11.248Z,16.50
2018-04-18T22:18:40.445Z,16.50
2018-04-18T22:21:09.644Z,16.50
2018-04-18T22:23:38.840Z,16.50
2018-04-18T22:26:08.059Z,16.40
2018-04-18T22:28:36.496Z,16.40
2018-04-18T22:31:05.105Z,16.40
2018-04-18T22:33:34.239Z,16.40
2018-04-18T22:36:02.912Z,16.40
2018-04-18T22:38:31.354Z,16.40
2018-04-18T22:41:00.560Z,16.30
2018-04-18T22:43:29.769Z,16.30
2018-04-18T22:45:58.228Z,16.30
2018-04-18T22:48:27.429Z,16.30
2018-04-18T22:50:56.615Z,16.30
2018-04-18T22:53:26.813Z,16.20
2018-04-18T22:55:55.239Z,16.20
2018-04-18T22:58:23.742Z,16.20
2018-04-18T23:00:52.181Z,16.30
2018-04-18T23:03:22.373Z,16.30
2018-04-18T23:05:50.792Z,16.30
2018-04-18T23:08:19.283Z,16.30
2018-04-18T23:10:47.719Z,16.20
2018-04-18T23:13:17.089Z,16.20
2018-04-18T23:15:45.557Z,16.20
2018-04-18T23:18:14.026Z,16.20
2018-04-18T23:20:42.457Z,16.20
2018-04-18T23:23:10.919Z,16.20
2018-04-18T23:25:39.531Z,16.20
2018-04-18T23:28:08.783Z,16.20
2018-04-18T23:30:37.203Z,16.10
2018-04-18T23:33:06.417Z,16.20
2018-04-18T23:35:34.628Z,16.10
2018-04-18T23:38:03.341Z,16.10
2018-04-18T23:40:31.776Z,16.10
2018-04-18T23:42:59.895Z,16.10
2018-04-18T23:45:28.094Z,16.10
2018-04-18T23:47:57.324Z,16.10
2018-04-18T23:50:25.556Z,16.10
2018-04-18T23:52:54.173Z,16.00
2018-04-18T23:55:22.615Z,16.00
2018-04-18T23:57:51.807Z,16.00
